Terminal Aerodrome Forecast
Issued by NWS

Current Version | Previous Version | Text Only | Print | Product List | Glossary On
Versions: 1 2 3 4 5 6 7 8 9 10 11 12 13 14
359
FTUS42 TJSJ 210537
TAFJBQ
TAF
TJBQ 210537Z 2106/2206 29009KT P6SM VCSH SCT024 BKN070
      TEMPO 2106/2107 BKN025
     FM211300 34015G23KT P6SM FEW030 SCT060
     FM212000 04016KT P6SM VCSH FEW030
      AMD NOT SKED TIL 211100=

USA.gov is the U.S. government's official web portal to all federal, state and local government web resources and services.